Time;durP1;ratioP1;P1;durP2;ratioP2;P2;SDS_P1;SDS_P2;PMS_P1;PMS_P2;Temp;Humidity;BMP_temperature;BMP_pressure;BME280_temperature;BME280_humidity;BME280_pressure;Samples;Min_cycle;Max_cycle;Signal;HPM_P1;HPM_P2
2023/08/15 00:03:30;;;;;;;7.05;2.58;;;;;;;;;;5086641;28;20036;-64
2023/08/15 00:07:11;;;;;;;7.70;2.33;;;;;;;;;;5088446;28;20040;-62
2023/08/15 00:10:52;;;;;;;8.95;2.53;;;;;;;;;;5077782;28;20392;-63
2023/08/15 00:14:34;;;;;;;7.97;2.38;;;;;;;;;;5082618;28;20094;-63
2023/08/15 00:18:14;;;;;;;7.40;2.72;;;;;;;;;;5080219;28;20083;-60
2023/08/15 00:21:54;;;;;;;7.68;2.58;;;;;;;;;;5072915;28;20465;-63
2023/08/15 00:25:35;;;;;;;9.23;2.47;;;;;;;;;;5077247;28;20044;-63
2023/08/15 00:29:15;;;;;;;8.57;2.47;;;;;;;;;;5083862;28;20054;-63
2023/08/15 00:32:55;;;;;;;9.85;2.47;;;;;;;;;;5078915;28;20047;-63
2023/08/15 00:36:36;;;;;;;7.47;2.20;;;;;;;;;;5074929;28;20689;-63
2023/08/15 00:40:16;;;;;;;7.93;2.53;;;;;;;;;;5081190;28;20040;-63
2023/08/15 00:43:58;;;;;;;7.13;2.20;;;;;;;;;;5081017;28;20487;-62
2023/08/15 00:47:37;;;;;;;9.88;2.80;;;;;;;;;;5082913;28;20083;-62
2023/08/15 00:51:17;;;;;;;7.75;2.53;;;;;;;;;;5083758;28;20055;-62
2023/08/15 00:54:57;;;;;;;7.60;2.33;;;;;;;;;;5071923;28;20452;-63
2023/08/15 00:58:38;;;;;;;8.23;2.20;;;;;;;;;;5082652;28;20052;-62
2023/08/15 01:02:18;;;;;;;9.40;2.67;;;;;;;;;;5068877;28;20083;-63
2023/08/15 01:05:58;;;;;;;5.75;1.98;;;;;;;;;;5077346;28;20127;-62
2023/08/15 01:09:39;;;;;;;9.55;2.50;;;;;;;;;;5077162;28;20553;-61
2023/08/15 01:13:02;;;;;;;7.60;2.20;;;;;;;;;;5081007;28;20484;-63
2023/08/15 01:16:43;;;;;;;6.88;2.50;;;;;;;;;;5083890;28;20106;-63
2023/08/15 01:20:23;;;;;;;11.40;2.50;;;;;;;;;;5079278;28;20036;-62
2023/08/15 01:24:03;;;;;;;5.93;2.53;;;;;;;;;;5083469;28;20043;-61
2023/08/15 01:27:44;;;;;;;8.48;2.13;;;;;;;;;;5076135;28;20063;-62
2023/08/15 01:31:26;;;;;;;7.55;2.35;;;;;;;;;;5084478;28;20047;-63
2023/08/15 01:35:13;;;;;;;8.52;2.30;;;;;;;;;;5077035;28;20079;-62
2023/08/15 01:39:00;;;;;;;10.65;2.30;;;;;;;;;;5081368;28;20040;-62
2023/08/15 01:42:40;;;;;;;5.65;1.95;;;;;;;;;;5084178;28;20040;-63
2023/08/15 01:46:20;;;;;;;8.30;2.40;;;;;;;;;;5078852;28;20068;-63
2023/08/15 01:50:01;;;;;;;11.05;2.67;;;;;;;;;;5078388;28;20134;-63
2023/08/15 01:53:41;;;;;;;9.32;2.20;;;;;;;;;;5080118;28;20044;-63
2023/08/15 01:57:21;;;;;;;6.20;2.33;;;;;;;;;;5088079;28;20044;-62
2023/08/15 02:01:02;;;;;;;6.82;2.50;;;;;;;;;;5081073;28;20052;-62
2023/08/15 02:04:42;;;;;;;7.50;2.47;;;;;;;;;;5081139;28;20052;-62
2023/08/15 02:08:23;;;;;;;7.22;2.58;;;;;;;;;;5083712;28;20101;-63
2023/08/15 02:12:03;;;;;;;7.18;2.45;;;;;;;;;;5080703;28;20071;-62
2023/08/15 02:15:43;;;;;;;7.28;2.30;;;;;;;;;;5080412;28;20106;-62
2023/08/15 02:19:23;;;;;;;7.50;2.47;;;;;;;;;;5090811;28;20136;-62
2023/08/15 02:23:04;;;;;;;8.73;2.38;;;;;;;;;;5082997;28;20059;-61
2023/08/15 02:26:44;;;;;;;8.40;2.80;;;;;;;;;;5080915;28;20586;-61
2023/08/15 02:30:25;;;;;;;7.32;2.45;;;;;;;;;;5083681;28;20047;-63
2023/08/15 02:34:05;;;;;;;7.90;2.35;;;;;;;;;;5083393;28;20044;-62
2023/08/15 02:37:45;;;;;;;7.03;2.42;;;;;;;;;;5085858;28;20048;-62
2023/08/15 02:41:25;;;;;;;9.10;2.70;;;;;;;;;;5074269;28;20074;-62
2023/08/15 02:45:06;;;;;;;12.00;2.58;;;;;;;;;;5075328;28;20052;-63
2023/08/15 02:48:46;;;;;;;9.68;3.00;;;;;;;;;;5086493;28;20044;-62
2023/08/15 02:52:26;;;;;;;8.95;2.60;;;;;;;;;;5080304;28;20043;-61
2023/08/15 02:56:09;;;;;;;11.70;3.00;;;;;;;;;;5088103;28;20131;-63
2023/08/15 02:59:50;;;;;;;7.05;2.60;;;;;;;;;;5085049;28;20044;-62
2023/08/15 03:03:30;;;;;;;5.88;2.25;;;;;;;;;;5083640;28;20236;-62
2023/08/15 03:07:10;;;;;;;8.88;2.47;;;;;;;;;;5077517;28;20891;-62
2023/08/15 03:10:51;;;;;;;8.90;2.50;;;;;;;;;;5080186;28;20079;-62
2023/08/15 03:14:31;;;;;;;7.18;2.53;;;;;;;;;;5087535;28;20499;-62
2023/08/15 03:18:14;;;;;;;9.68;2.67;;;;;;;;;;5088752;28;20058;-62
2023/08/15 03:21:55;;;;;;;8.73;2.70;;;;;;;;;;5076967;28;20376;-61
2023/08/15 03:25:35;;;;;;;11.93;2.85;;;;;;;;;;5073714;28;20045;-64
2023/08/15 03:29:15;;;;;;;11.75;2.90;;;;;;;;;;5087113;28;20075;-62
2023/08/15 03:32:56;;;;;;;8.25;2.38;;;;;;;;;;5084279;28;20058;-61
2023/08/15 03:36:36;;;;;;;8.13;2.55;;;;;;;;;;5080333;28;20048;-62
2023/08/15 03:40:16;;;;;;;6.25;2.53;;;;;;;;;;5083128;28;20396;-62
2023/08/15 03:43:57;;;;;;;7.07;2.63;;;;;;;;;;5082710;28;20040;-63
2023/08/15 03:47:37;;;;;;;10.50;2.92;;;;;;;;;;5084732;28;20112;-62
2023/08/15 03:51:17;;;;;;;9.30;2.40;;;;;;;;;;5072123;28;20052;-63
2023/08/15 03:54:58;;;;;;;8.93;2.45;;;;;;;;;;5075490;28;20048;-61
2023/08/15 03:58:38;;;;;;;10.07;3.38;;;;;;;;;;5083863;28;20047;-61
2023/08/15 04:02:18;;;;;;;9.63;3.00;;;;;;;;;;5074682;28;20479;-62
2023/08/15 04:05:59;;;;;;;7.65;2.75;;;;;;;;;;5080119;28;20127;-61
2023/08/15 04:09:39;;;;;;;8.10;2.60;;;;;;;;;;5080077;28;20050;-60
2023/08/15 04:13:19;;;;;;;7.68;3.10;;;;;;;;;;5083753;28;20048;-61
2023/08/15 04:17:00;;;;;;;10.68;2.90;;;;;;;;;;5081899;28;20054;-62
2023/08/15 04:20:40;;;;;;;10.13;2.47;;;;;;;;;;5070726;28;20055;-61
2023/08/15 04:24:20;;;;;;;6.30;2.65;;;;;;;;;;5081154;28;20040;-64
2023/08/15 04:28:01;;;;;;;8.85;2.80;;;;;;;;;;5081802;28;20055;-62
2023/08/15 04:31:41;;;;;;;6.80;2.83;;;;;;;;;;5078033;28;20048;-63
2023/08/15 04:35:22;;;;;;;8.30;2.30;;;;;;;;;;5081517;28;20070;-61
2023/08/15 04:39:02;;;;;;;6.30;2.60;;;;;;;;;;5080451;28;20066;-61
2023/08/15 04:42:42;;;;;;;7.40;2.58;;;;;;;;;;5083997;28;20067;-61
2023/08/15 04:46:22;;;;;;;11.18;2.70;;;;;;;;;;5087604;28;20055;-62
2023/08/15 04:50:03;;;;;;;9.32;2.88;;;;;;;;;;5079837;28;20052;-63
2023/08/15 04:53:43;;;;;;;6.65;2.58;;;;;;;;;;5081531;28;20067;-62
2023/08/15 04:57:24;;;;;;;7.07;2.80;;;;;;;;;;5080105;28;20048;-61
2023/08/15 05:01:04;;;;;;;7.70;2.80;;;;;;;;;;5080312;28;20109;-61
2023/08/15 05:04:44;;;;;;;8.93;2.88;;;;;;;;;;5076315;28;20048;-61
2023/08/15 05:08:25;;;;;;;7.35;2.85;;;;;;;;;;5073487;28;20419;-61
2023/08/15 05:12:05;;;;;;;13.07;2.80;;;;;;;;;;5076830;28;20060;-64
2023/08/15 05:15:46;;;;;;;10.68;2.90;;;;;;;;;;5072601;28;20044;-63
2023/08/15 05:19:26;;;;;;;9.23;3.25;;;;;;;;;;5086832;28;20044;-63
2023/08/15 05:23:06;;;;;;;9.45;3.20;;;;;;;;;;5076847;28;20407;-61
2023/08/15 05:26:47;;;;;;;10.95;3.45;;;;;;;;;;5071188;28;20052;-62
2023/08/15 05:30:27;;;;;;;8.18;2.97;;;;;;;;;;5079652;28;20047;-60
2023/08/15 05:34:07;;;;;;;7.40;2.47;;;;;;;;;;5080845;28;20527;-61
2023/08/15 05:37:48;;;;;;;5.85;2.70;;;;;;;;;;5075483;28;20047;-61
2023/08/15 05:41:28;;;;;;;10.32;3.30;;;;;;;;;;5084312;28;20059;-61
2023/08/15 05:45:08;;;;;;;12.70;2.97;;;;;;;;;;5087110;28;20048;-64
2023/08/15 05:48:49;;;;;;;8.57;3.03;;;;;;;;;;5085554;28;20047;-62
2023/08/15 05:52:29;;;;;;;12.38;2.90;;;;;;;;;;5085062;28;20396;-60
2023/08/15 05:56:09;;;;;;;10.73;2.65;;;;;;;;;;5083377;28;20066;-58
2023/08/15 05:59:50;;;;;;;8.68;2.92;;;;;;;;;;5086854;28;20039;-59
2023/08/15 06:03:30;;;;;;;9.00;2.67;;;;;;;;;;5074676;28;20044;-60
2023/08/15 06:07:12;;;;;;;9.50;2.58;;;;;;;;;;5077754;28;20051;-57
2023/08/15 06:10:51;;;;;;;12.02;2.72;;;;;;;;;;5082304;28;20414;-60
2023/08/15 06:14:31;;;;;;;6.97;2.42;;;;;;;;;;5082281;28;20088;-61
2023/08/15 06:18:11;;;;;;;9.15;2.50;;;;;;;;;;5086849;28;20488;-60
2023/08/15 06:21:52;;;;;;;8.30;2.60;;;;;;;;;;5075302;28;20036;-64
2023/08/15 06:25:32;;;;;;;11.75;2.58;;;;;;;;;;5073477;28;20572;-61
2023/08/15 06:29:12;;;;;;;9.60;2.70;;;;;;;;;;5086982;28;20048;-62
2023/08/15 06:33:05;;;;;;;10.93;2.45;;;;;;;;;;5079235;28;20044;-62
2023/08/15 06:36:45;;;;;;;8.77;2.70;;;;;;;;;;5080381;28;20040;-62
2023/08/15 06:40:26;;;;;;;11.82;2.67;;;;;;;;;;5084467;28;20108;-61
2023/08/15 06:44:06;;;;;;;6.65;2.58;;;;;;;;;;5082514;28;20476;-62
2023/08/15 06:47:46;;;;;;;8.10;2.13;;;;;;;;;;5079726;28;20052;-62
2023/08/15 06:51:27;;;;;;;7.97;2.40;;;;;;;;;;5080468;28;20407;-61
2023/08/15 06:55:07;;;;;;;13.07;2.97;;;;;;;;;;5080984;28;20052;-62
2023/08/15 06:58:47;;;;;;;7.43;2.45;;;;;;;;;;5077655;28;20403;-63
2023/08/15 07:02:28;;;;;;;8.30;3.00;;;;;;;;;;5077407;28;20044;-61
2023/08/15 07:06:08;;;;;;;9.73;3.22;;;;;;;;;;5076555;28;20415;-61
2023/08/15 07:09:49;;;;;;;8.23;3.05;;;;;;;;;;5083372;28;20048;-61
2023/08/15 07:13:29;;;;;;;8.77;2.60;;;;;;;;;;5086887;28;20454;-62
2023/08/15 07:17:09;;;;;;;8.02;3.08;;;;;;;;;;5082589;28;20052;-61
2023/08/15 07:20:49;;;;;;;9.43;2.88;;;;;;;;;;5069879;28;20514;-62
2023/08/15 07:24:30;;;;;;;9.05;2.85;;;;;;;;;;5082450;28;20040;-63
2023/08/15 07:28:10;;;;;;;11.30;2.85;;;;;;;;;;5087263;28;20059;-62
2023/08/15 07:31:51;;;;;;;10.57;2.70;;;;;;;;;;5082138;28;20063;-63
2023/08/15 07:35:31;;;;;;;11.27;3.25;;;;;;;;;;5082243;28;20115;-64
2023/08/15 07:39:11;;;;;;;8.07;2.80;;;;;;;;;;5080164;28;20090;-62
2023/08/15 07:42:54;;;;;;;8.63;3.08;;;;;;;;;;5085347;28;20040;-63
2023/08/15 07:46:32;;;;;;;9.80;3.53;;;;;;;;;;5087502;28;20444;-61
2023/08/15 07:50:30;;;;;;;9.63;3.05;;;;;;;;;;5082286;28;20072;-66
2023/08/15 07:54:11;;;;;;;13.05;3.63;;;;;;;;;;5025162;28;20095;-63
2023/08/15 07:57:51;;;;;;;8.45;2.92;;;;;;;;;;5016333;28;20077;-62
2023/08/15 08:01:32;;;;;;;13.90;3.03;;;;;;;;;;5024752;28;20072;-62
2023/08/15 08:05:15;;;;;;;7.38;3.03;;;;;;;;;;5022643;28;20057;-62
2023/08/15 08:08:52;;;;;;;12.25;3.65;;;;;;;;;;5022818;28;20501;-63
2023/08/15 08:12:33;;;;;;;9.25;3.60;;;;;;;;;;5024776;28;20053;-62
2023/08/15 08:16:13;;;;;;;14.45;3.78;;;;;;;;;;5019133;28;20045;-64
2023/08/15 08:19:54;;;;;;;9.98;2.90;;;;;;;;;;5022554;28;20048;-63
2023/08/15 08:23:34;;;;;;;14.50;3.10;;;;;;;;;;5029531;28;20535;-64
2023/08/15 08:27:14;;;;;;;10.13;3.33;;;;;;;;;;5082630;28;20079;-63
2023/08/15 08:30:58;;;;;;;9.00;3.08;;;;;;;;;;5080022;28;20459;-63
2023/08/15 08:34:38;;;;;;;10.98;2.90;;;;;;;;;;5086179;28;20108;-62
2023/08/15 08:38:18;;;;;;;8.82;3.15;;;;;;;;;;5076636;28;20664;-63
2023/08/15 08:41:58;;;;;;;9.93;3.10;;;;;;;;;;5076928;28;20039;-63
2023/08/15 08:45:39;;;;;;;9.65;3.17;;;;;;;;;;5079913;28;20136;-61
2023/08/15 08:49:19;;;;;;;9.50;3.10;;;;;;;;;;5083704;28;20052;-62
2023/08/15 08:52:59;;;;;;;8.05;2.60;;;;;;;;;;5076472;28;20054;-62
2023/08/15 08:56:40;;;;;;;6.70;2.80;;;;;;;;;;5075630;28;20051;-59
2023/08/15 09:00:20;;;;;;;6.78;3.20;;;;;;;;;;5080993;28;20040;-57
2023/08/15 09:04:00;;;;;;;11.93;3.15;;;;;;;;;;5076434;28;20079;-61
2023/08/15 09:07:01;;;;;;;8.70;2.83;;;;;;;;;;5070858;28;20044;-62
2023/08/15 09:09:27;;;;;;;12.80;3.20;;;;;;;;;;5076799;28;20108;-61
2023/08/15 09:11:53;;;;;;;11.05;3.17;;;;;;;;;;5077054;28;20052;-61
2023/08/15 09:14:22;;;;;;;10.45;2.97;;;;;;;;;;5072954;28;20067;-58
2023/08/15 09:16:49;;;;;;;9.93;3.05;;;;;;;;;;5074447;28;20036;-62
2023/08/15 09:19:16;;;;;;;10.73;3.22;;;;;;;;;;5075341;28;20131;-66
2023/08/15 09:21:43;;;;;;;9.93;2.72;;;;;;;;;;5080705;28;20135;-63
2023/08/15 09:24:09;;;;;;;9.63;2.42;;;;;;;;;;5077946;28;20052;-65
2023/08/15 09:26:37;;;;;;;10.00;3.33;;;;;;;;;;5070175;28;20128;-64
2023/08/15 09:29:04;;;;;;;8.50;2.70;;;;;;;;;;5079364;28;20123;-64
2023/08/15 09:31:30;;;;;;;10.77;3.17;;;;;;;;;;5075196;28;20161;-61
2023/08/15 09:33:56;;;;;;;13.27;3.22;;;;;;;;;;5080776;28;20451;-62
2023/08/15 09:36:24;;;;;;;13.15;2.85;;;;;;;;;;5085885;28;20083;-63
2023/08/15 09:38:51;;;;;;;9.00;2.80;;;;;;;;;;5083012;28;20052;-62
2023/08/15 09:41:18;;;;;;;10.07;2.67;;;;;;;;;;5074470;28;20070;-64
2023/08/15 09:43:51;;;;;;;10.50;2.67;;;;;;;;;;5082553;28;20048;-65
2023/08/15 09:46:18;;;;;;;8.35;2.78;;;;;;;;;;5078306;28;20060;-63
2023/08/15 09:48:48;;;;;;;9.68;2.72;;;;;;;;;;5075998;28;20048;-65
2023/08/15 09:51:16;;;;;;;11.30;3.00;;;;;;;;;;5077384;28;20059;-64
2023/08/15 09:53:47;;;;;;;11.88;2.60;;;;;;;;;;5083314;28;20056;-64
2023/08/15 09:56:13;;;;;;;9.00;2.75;;;;;;;;;;5071801;28;20059;-63
2023/08/15 09:58:39;;;;;;;8.40;2.28;;;;;;;;;;5077845;28;20059;-62
2023/08/15 10:01:10;;;;;;;11.27;2.90;;;;;;;;;;5082671;28;20136;-64
2023/08/15 10:03:40;;;;;;;9.93;3.00;;;;;;;;;;5087098;28;20499;-64
2023/08/15 10:06:08;;;;;;;14.10;2.72;;;;;;;;;;5083837;28;20188;-62
2023/08/15 10:08:38;;;;;;;11.45;2.70;;;;;;;;;;5082896;28;20101;-63
2023/08/15 10:11:11;;;;;;;8.20;2.53;;;;;;;;;;5082238;28;20476;-64
2023/08/15 10:13:39;;;;;;;11.45;2.70;;;;;;;;;;5080124;28;20272;-60
2023/08/15 10:16:06;;;;;;;12.48;2.85;;;;;;;;;;5076454;28;20385;-57
2023/08/15 10:18:33;;;;;;;9.35;3.00;;;;;;;;;;5075682;28;20492;-58
2023/08/15 10:21:01;;;;;;;7.43;2.65;;;;;;;;;;5087883;28;20052;-59
2023/08/15 10:23:28;;;;;;;12.60;2.85;;;;;;;;;;5079570;28;21286;-59
2023/08/15 10:25:54;;;;;;;13.63;3.00;;;;;;;;;;5086763;28;20134;-61
2023/08/15 10:28:20;;;;;;;11.45;2.80;;;;;;;;;;5089081;28;20514;-59
2023/08/15 10:30:48;;;;;;;7.90;2.50;;;;;;;;;;5085197;28;20055;-58
2023/08/15 10:33:19;;;;;;;9.98;2.80;;;;;;;;;;5090456;28;20044;-59
2023/08/15 10:35:54;;;;;;;7.85;2.55;;;;;;;;;;5081796;28;20665;-62
2023/08/15 10:38:28;;;;;;;9.45;2.90;;;;;;;;;;5089786;28;20059;-58
2023/08/15 10:41:21;;;;;;;10.30;2.80;;;;;;;;;;5072765;28;20045;-60
2023/08/15 10:43:53;;;;;;;8.48;2.50;;;;;;;;;;5072725;28;20510;-62
2023/08/15 10:46:25;;;;;;;8.25;2.50;;;;;;;;;;5080998;28;20241;-62
2023/08/15 10:49:07;;;;;;;9.45;3.03;;;;;;;;;;5078649;28;20041;-62
2023/08/15 10:51:38;;;;;;;8.45;2.90;;;;;;;;;;5080029;28;20411;-63
2023/08/15 10:54:09;;;;;;;9.45;3.00;;;;;;;;;;5078753;28;20048;-61
2023/08/15 10:56:37;;;;;;;9.25;2.65;;;;;;;;;;5080583;28;20070;-62
2023/08/15 10:59:08;;;;;;;9.70;2.80;;;;;;;;;;5086122;28;20054;-61
2023/08/15 11:01:36;;;;;;;9.27;2.65;;;;;;;;;;5079327;28;20065;-61
2023/08/15 11:04:03;;;;;;;7.90;2.53;;;;;;;;;;5082645;28;20048;-59
2023/08/15 11:06:30;;;;;;;11.05;2.70;;;;;;;;;;5076205;28;20129;-63
2023/08/15 11:08:58;;;;;;;7.55;2.53;;;;;;;;;;5072279;28;20387;-59
2023/08/15 11:11:25;;;;;;;9.43;2.80;;;;;;;;;;5076966;28;20052;-57
2023/08/15 11:13:53;;;;;;;9.05;2.60;;;;;;;;;;5071489;28;20044;-60
2023/08/15 11:16:21;;;;;;;12.45;2.80;;;;;;;;;;5086805;28;20048;-61
2023/08/15 11:18:48;;;;;;;9.48;2.70;;;;;;;;;;5087578;28;20044;-61
2023/08/15 11:21:15;;;;;;;8.57;2.50;;;;;;;;;;5080583;28;20052;-60
2023/08/15 11:23:42;;;;;;;10.70;2.55;;;;;;;;;;5078405;28;20492;-62
2023/08/15 11:26:10;;;;;;;9.73;3.20;;;;;;;;;;5079737;28;20504;-61
2023/08/15 11:28:37;;;;;;;13.55;4.05;;;;;;;;;;5084787;28;20052;-62
2023/08/15 11:31:08;;;;;;;10.25;3.38;;;;;;;;;;5082729;28;20075;-64
2023/08/15 11:33:35;;;;;;;10.05;3.03;;;;;;;;;;5074929;28;20093;-62
2023/08/15 11:36:09;;;;;;;7.57;2.70;;;;;;;;;;5088207;28;20059;-63
2023/08/15 11:38:37;;;;;;;8.13;2.58;;;;;;;;;;5078942;28;20048;-63
2023/08/15 11:41:04;;;;;;;8.85;3.30;;;;;;;;;;5085835;28;20423;-62
2023/08/15 11:43:31;;;;;;;13.02;2.95;;;;;;;;;;5082854;28;20056;-62
2023/08/15 11:46:01;;;;;;;14.60;3.05;;;;;;;;;;5083573;28;20044;-61
2023/08/15 11:48:29;;;;;;;10.55;2.80;;;;;;;;;;5086243;28;20430;-62
2023/08/15 11:50:54;;;;;;;8.75;2.60;;;;;;;;;;5080403;28;20636;-63
2023/08/15 11:53:21;;;;;;;11.27;2.90;;;;;;;;;;5083802;28;20075;-61
2023/08/15 11:55:47;;;;;;;8.25;2.70;;;;;;;;;;5082097;28;20080;-62
2023/08/15 11:58:27;;;;;;;10.38;2.70;;;;;;;;;;5085299;28;20052;-62
2023/08/15 12:01:11;;;;;;;10.73;2.72;;;;;;;;;;5088352;28;20079;-62
2023/08/15 12:03:38;;;;;;;8.52;2.60;;;;;;;;;;5069339;28;20052;-62
2023/08/15 12:06:12;;;;;;;9.68;2.47;;;;;;;;;;5069702;28;20050;-62
2023/08/15 12:08:43;;;;;;;14.00;2.97;;;;;;;;;;5079771;28;20057;-62
2023/08/15 12:11:10;;;;;;;8.65;2.80;;;;;;;;;;5071138;28;20056;-60
2023/08/15 12:13:38;;;;;;;7.97;2.75;;;;;;;;;;5081544;28;20043;-62
2023/08/15 12:16:06;;;;;;;9.38;2.65;;;;;;;;;;5084528;28;20109;-62
2023/08/15 12:18:32;;;;;;;9.85;2.80;;;;;;;;;;5080453;28;20052;-60
2023/08/15 12:20:59;;;;;;;7.53;2.58;;;;;;;;;;5076287;28;20044;-60
2023/08/15 12:23:26;;;;;;;8.75;2.78;;;;;;;;;;5072426;28;20087;-62
2023/08/15 12:25:52;;;;;;;11.32;2.67;;;;;;;;;;5080041;28;20737;-62
2023/08/15 12:28:18;;;;;;;8.27;2.50;;;;;;;;;;5082415;28;20052;-62
2023/08/15 12:30:45;;;;;;;8.82;2.80;;;;;;;;;;5085530;28;20052;-60
2023/08/15 12:33:11;;;;;;;8.88;2.78;;;;;;;;;;5085342;28;20064;-61
2023/08/15 12:35:37;;;;;;;11.93;2.83;;;;;;;;;;5087547;28;20078;-61
2023/08/15 12:38:04;;;;;;;5.90;2.38;;;;;;;;;;5082593;28;20067;-63
2023/08/15 12:40:30;;;;;;;13.02;2.60;;;;;;;;;;5080613;28;20044;-59
2023/08/15 12:42:56;;;;;;;9.48;2.60;;;;;;;;;;5084622;28;20058;-59
2023/08/15 12:45:22;;;;;;;8.93;2.70;;;;;;;;;;5082401;28;20152;-61
2023/08/15 12:47:48;;;;;;;7.93;2.53;;;;;;;;;;5086788;28;20051;-60
2023/08/15 12:50:14;;;;;;;11.77;2.50;;;;;;;;;;5086672;28;20036;-63
2023/08/15 12:52:40;;;;;;;8.43;2.60;;;;;;;;;;5084040;28;20338;-61
2023/08/15 12:55:06;;;;;;;8.60;2.40;;;;;;;;;;5081066;28;20492;-60
2023/08/15 12:57:32;;;;;;;10.30;2.60;;;;;;;;;;5084542;28;20555;-59
2023/08/15 12:59:58;;;;;;;9.95;2.53;;;;;;;;;;5084755;28;20147;-62
2023/08/15 13:02:27;;;;;;;7.82;2.13;;;;;;;;;;5076732;28;20350;-64
2023/08/15 13:04:54;;;;;;;9.38;2.45;;;;;;;;;;5076897;28;20373;-62
2023/08/15 13:07:20;;;;;;;7.25;2.35;;;;;;;;;;5080623;28;20496;-61
2023/08/15 13:09:46;;;;;;;9.90;2.60;;;;;;;;;;5086675;28;20135;-60
2023/08/15 13:12:12;;;;;;;9.23;2.30;;;;;;;;;;5084789;28;20041;-62
2023/08/15 13:14:37;;;;;;;7.20;2.03;;;;;;;;;;5083276;28;20134;-61
2023/08/15 13:17:04;;;;;;;10.80;2.40;;;;;;;;;;5081588;28;20058;-60
2023/08/15 13:19:31;;;;;;;7.22;2.08;;;;;;;;;;5080308;28;20048;-61
2023/08/15 13:21:57;;;;;;;9.65;2.22;;;;;;;;;;5084021;28;20056;-60
2023/08/15 13:24:23;;;;;;;8.10;2.35;;;;;;;;;;5082454;28;20056;-60
2023/08/15 13:26:50;;;;;;;8.57;1.88;;;;;;;;;;5076578;28;20110;-62
2023/08/15 13:29:16;;;;;;;6.05;2.25;;;;;;;;;;5086184;28;20048;-62
2023/08/15 13:31:42;;;;;;;8.23;2.40;;;;;;;;;;5078904;28;20056;-61
2023/08/15 13:34:08;;;;;;;9.63;2.50;;;;;;;;;;5086773;28;20384;-62
2023/08/15 13:36:34;;;;;;;8.82;2.60;;;;;;;;;;5083405;28;20094;-61
2023/08/15 13:38:59;;;;;;;8.98;2.30;;;;;;;;;;5077709;28;20060;-61
2023/08/15 13:41:26;;;;;;;10.13;2.55;;;;;;;;;;5084442;28;20060;-60
2023/08/15 13:43:51;;;;;;;10.15;2.50;;;;;;;;;;5086523;28;20514;-60
2023/08/15 13:46:19;;;;;;;9.77;2.65;;;;;;;;;;5084649;28;20036;-59
2023/08/15 13:48:45;;;;;;;10.85;2.42;;;;;;;;;;5077740;28;20049;-58
2023/08/15 13:51:19;;;;;;;7.88;2.35;;;;;;;;;;5087921;28;20052;-61
2023/08/15 13:53:48;;;;;;;8.73;2.53;;;;;;;;;;5076610;28;20064;-61
2023/08/15 13:56:16;;;;;;;8.70;2.40;;;;;;;;;;5078632;28;20052;-61
2023/08/15 13:58:42;;;;;;;6.75;2.20;;;;;;;;;;5078774;28;20102;-60
2023/08/15 14:01:11;;;;;;;6.72;2.42;;;;;;;;;;5087991;28;20059;-61
2023/08/15 14:03:37;;;;;;;9.13;2.42;;;;;;;;;;5081993;28;20097;-60
2023/08/15 14:06:04;;;;;;;9.80;2.60;;;;;;;;;;5081747;28;20048;-61
2023/08/15 14:08:31;;;;;;;8.07;2.50;;;;;;;;;;5087200;28;20044;-62
2023/08/15 14:10:58;;;;;;;8.25;2.72;;;;;;;;;;5083963;28;20056;-61
2023/08/15 14:13:24;;;;;;;7.43;2.20;;;;;;;;;;5085316;28;20048;-61
2023/08/15 14:15:50;;;;;;;10.15;2.30;;;;;;;;;;5090311;28;20091;-60
2023/08/15 14:18:16;;;;;;;6.63;2.22;;;;;;;;;;5088376;28;20430;-61
2023/08/15 14:20:42;;;;;;;9.48;2.47;;;;;;;;;;5091160;28;20510;-60
2023/08/15 14:23:08;;;;;;;5.68;1.95;;;;;;;;;;5084881;28;20048;-61
2023/08/15 14:25:34;;;;;;;12.63;2.42;;;;;;;;;;5081599;28;20102;-60
2023/08/15 14:27:59;;;;;;;8.50;2.00;;;;;;;;;;5080410;28;20048;-61
2023/08/15 14:30:26;;;;;;;9.20;2.67;;;;;;;;;;5087568;28;20174;-61
2023/08/15 14:32:53;;;;;;;7.90;2.58;;;;;;;;;;5089509;28;20082;-60
2023/08/15 14:35:19;;;;;;;10.30;2.22;;;;;;;;;;5088921;28;20059;-61
2023/08/15 14:37:45;;;;;;;9.65;2.40;;;;;;;;;;5077447;28;20080;-62
2023/08/15 14:40:12;;;;;;;10.77;2.40;;;;;;;;;;5074366;28;20063;-61
2023/08/15 14:42:38;;;;;;;8.18;2.28;;;;;;;;;;5076756;28;20048;-62
2023/08/15 14:45:05;;;;;;;9.65;2.30;;;;;;;;;;5082110;28;20194;-61
2023/08/15 14:47:33;;;;;;;10.00;2.08;;;;;;;;;;5079527;28;20048;-61
2023/08/15 14:50:39;;;;;;;6.25;2.05;;;;;;;;;;5070384;28;20060;-56
2023/08/15 14:54:19;;;;;;;11.20;2.40;;;;;;;;;;5078901;28;20465;-57
2023/08/15 14:57:59;;;;;;;7.93;2.40;;;;;;;;;;5078892;28;20063;-55
2023/08/15 15:01:40;;;;;;;5.40;1.77;;;;;;;;;;5080209;28;20063;-60
2023/08/15 15:05:20;;;;;;;9.77;2.08;;;;;;;;;;5073846;28;20044;-59
2023/08/15 15:09:00;;;;;;;11.52;2.40;;;;;;;;;;5072376;28;20056;-60
2023/08/15 15:12:41;;;;;;;8.25;2.03;;;;;;;;;;5070256;28;20092;-55
2023/08/15 15:16:21;;;;;;;5.85;2.00;;;;;;;;;;5082618;28;20145;-58
2023/08/15 15:20:03;;;;;;;7.25;2.22;;;;;;;;;;5075240;28;20048;-58
2023/08/15 15:23:42;;;;;;;7.40;1.95;;;;;;;;;;5082407;28;20118;-59
2023/08/15 15:27:22;;;;;;;8.98;2.40;;;;;;;;;;5074523;28;20636;-62
2023/08/15 15:31:02;;;;;;;9.20;2.53;;;;;;;;;;5082605;28;20055;-59
2023/08/15 15:34:43;;;;;;;11.73;2.60;;;;;;;;;;5084665;27;20090;-62
2023/08/15 15:38:23;;;;;;;10.98;2.10;;;;;;;;;;5079911;28;20044;-59
2023/08/15 15:42:04;;;;;;;8.45;2.00;;;;;;;;;;5077019;28;20048;-63
2023/08/15 15:45:44;;;;;;;8.48;2.38;;;;;;;;;;5074672;28;20403;-59
2023/08/15 15:49:25;;;;;;;10.15;2.63;;;;;;;;;;5080749;28;20087;-60
2023/08/15 15:53:06;;;;;;;11.30;2.30;;;;;;;;;;5078185;28;20059;-59
2023/08/15 15:56:46;;;;;;;11.98;2.72;;;;;;;;;;5072220;28;20097;-60
2023/08/15 16:00:27;;;;;;;8.25;2.08;;;;;;;;;;5083950;28;20119;-61
2023/08/15 16:04:07;;;;;;;7.22;2.22;;;;;;;;;;5079108;28;20105;-60
2023/08/15 16:07:48;;;;;;;10.52;2.22;;;;;;;;;;5081025;28;20400;-63
2023/08/15 16:11:28;;;;;;;7.60;2.03;;;;;;;;;;5082160;28;20095;-61
2023/08/15 16:15:08;;;;;;;9.82;2.38;;;;;;;;;;5077663;28;20048;-61
2023/08/15 16:18:49;;;;;;;8.32;2.67;;;;;;;;;;5074588;28;20109;-61
2023/08/15 16:22:29;;;;;;;10.40;2.20;;;;;;;;;;5072032;28;20044;-60
2023/08/15 16:26:09;;;;;;;7.95;2.35;;;;;;;;;;5073481;28;20055;-60
2023/08/15 16:29:50;;;;;;;7.63;2.22;;;;;;;;;;5068687;28;20421;-61
2023/08/15 16:33:30;;;;;;;11.82;2.28;;;;;;;;;;5073350;28;20063;-59
2023/08/15 16:37:10;;;;;;;11.20;2.50;;;;;;;;;;5071103;28;20040;-62
2023/08/15 16:40:50;;;;;;;11.43;2.30;;;;;;;;;;5076216;28;20044;-59
2023/08/15 16:44:31;;;;;;;9.13;2.10;;;;;;;;;;5077458;28;20055;-61
2023/08/15 16:48:11;;;;;;;12.23;2.72;;;;;;;;;;5068607;28;20054;-61
2023/08/15 16:51:52;;;;;;;12.23;2.40;;;;;;;;;;5070846;28;20071;-61
2023/08/15 16:55:32;;;;;;;11.45;2.40;;;;;;;;;;5075463;28;20040;-63
2023/08/15 16:59:13;;;;;;;11.65;2.65;;;;;;;;;;5075675;28;20043;-61
2023/08/15 17:02:53;;;;;;;7.05;2.22;;;;;;;;;;5071496;28;20097;-59
2023/08/15 17:06:33;;;;;;;7.18;2.10;;;;;;;;;;5068035;28;20055;-58
2023/08/15 17:10:14;;;;;;;15.10;2.67;;;;;;;;;;5071306;28;20047;-58
2023/08/15 17:13:54;;;;;;;11.35;2.70;;;;;;;;;;5068169;28;20078;-56
2023/08/15 17:17:35;;;;;;;8.27;2.60;;;;;;;;;;5067096;28;20079;-59
2023/08/15 17:21:15;;;;;;;7.35;2.45;;;;;;;;;;5068895;28;20415;-56
2023/08/15 17:24:56;;;;;;;7.13;2.40;;;;;;;;;;5078592;28;20040;-56
2023/08/15 17:28:36;;;;;;;8.27;2.40;;;;;;;;;;5074933;28;20055;-62
2023/08/15 17:32:16;;;;;;;10.68;2.45;;;;;;;;;;5067671;28;20048;-62
2023/08/15 17:35:58;;;;;;;7.90;2.72;;;;;;;;;;5071038;28;20063;-56
2023/08/15 17:39:38;;;;;;;8.82;2.35;;;;;;;;;;5067903;28;20571;-60
2023/08/15 17:43:19;;;;;;;9.68;2.60;;;;;;;;;;5074618;28;20196;-60
2023/08/15 17:46:59;;;;;;;10.23;2.42;;;;;;;;;;5077323;28;20044;-58
2023/08/15 17:50:39;;;;;;;9.52;2.72;;;;;;;;;;5071138;28;20056;-59
2023/08/15 17:54:20;;;;;;;13.07;2.85;;;;;;;;;;5067382;28;20063;-62
2023/08/15 17:58:01;;;;;;;11.98;2.92;;;;;;;;;;5069768;28;20052;-61
2023/08/15 18:01:42;;;;;;;10.80;2.80;;;;;;;;;;5069100;28;20124;-59
2023/08/15 18:05:22;;;;;;;10.68;2.40;;;;;;;;;;5073618;28;20101;-60
2023/08/15 18:09:04;;;;;;;10.68;2.80;;;;;;;;;;5068077;28;20110;-60
2023/08/15 18:12:43;;;;;;;5.75;2.65;;;;;;;;;;5066985;28;20451;-63
2023/08/15 18:16:23;;;;;;;12.20;2.60;;;;;;;;;;5068384;28;20440;-58
2023/08/15 18:20:03;;;;;;;6.90;2.58;;;;;;;;;;5070683;28;20059;-60
2023/08/15 18:23:44;;;;;;;12.60;3.22;;;;;;;;;;5067890;28;20381;-62
2023/08/15 18:27:24;;;;;;;11.20;3.15;;;;;;;;;;5068612;28;20059;-64
2023/08/15 18:31:04;;;;;;;11.38;3.47;;;;;;;;;;5071125;28;20412;-61
2023/08/15 18:34:45;;;;;;;10.63;2.80;;;;;;;;;;5069964;28;20048;-63
2023/08/15 18:38:28;;;;;;;9.55;2.60;;;;;;;;;;5078233;28;20052;-61
2023/08/15 18:42:05;;;;;;;11.75;3.03;;;;;;;;;;5072134;28;20083;-62
2023/08/15 18:45:46;;;;;;;10.52;2.60;;;;;;;;;;5086523;28;20131;-63
2023/08/15 18:49:26;;;;;;;9.90;3.10;;;;;;;;;;5086815;28;20135;-62
2023/08/15 18:53:07;;;;;;;10.02;2.70;;;;;;;;;;5081628;28;20071;-62
2023/08/15 18:56:48;;;;;;;8.73;2.90;;;;;;;;;;5084127;28;20040;-63
2023/08/15 19:00:27;;;;;;;11.82;3.05;;;;;;;;;;5072481;28;20246;-64
2023/08/15 19:04:08;;;;;;;12.60;3.05;;;;;;;;;;5076611;28;20148;-62
2023/08/15 19:07:48;;;;;;;9.32;3.15;;;;;;;;;;5073738;28;20306;-60